Terminal Aerodrome Forecast
Issued by NWS

Home | Current Version | Previous Version | Text Only | Print | Product List | Glossary On
Versions: 1 2 3 4 5 6 7 8 9 10 11 12 13
520
FTUS44 KEPZ 271720
TAFDMN
TAF
KDMN 271720Z 2718/2818 26012G20KT P6SM SKC
     FM280300 29005KT P6SM SKC
     FM281700 16007KT P6SM SKC=

USA.gov is the U.S. government's official web portal to all federal, state and local government web resources and services.